Flugplatz Wolfhagen Graner Berg

Für EDGW sind keine METAR/TAF Berichte vorhanden.
Es werden die Flugwettermeldungen vom Flugplatz Kassel-Calden in 17 km Entfernung angezeigt.

Bericht für EDVK

vom 31.05. um 10:20 UTC

Wind 9 kt aus 20°

Sichtweite 10 km oder mehr

aufgelockert bewölkt in 4200 ft

Temperatur 16.0°C

Taupunkt 5.0°C

Luftfeuchtigkeit 48%

Luftdruck 1023 hPa

EDVK 311020Z 02009KT 340V050 9999 SCT042 16/05 Q1023

Prognose für EDVK

vom 31.05. um 08:00 UTC

Zwischen 09:00 UTC und 18:00 UTC

Wind 8 kt aus 30°

Sichtweite 10 km oder mehr

gering bewölkt in 3000 ft

TAF EDVK 310800Z 3109/3118 03008KT 9999 FEW030
Impressum